Time;durP1;ratioP1;P1;durP2;ratioP2;P2;SDS_P1;SDS_P2;PMS_P1;PMS_P2;Temp;Humidity;BMP_temperature;BMP_pressure;BME280_temperature;BME280_humidity;BME280_pressure;Samples;Min_cycle;Max_cycle;Signal;HPM_P1;HPM_P2
2022/01/19 00:00:38;;;;;;;20.13;6.60;;;5.40;99.90;;;;;;4869049;29;20033;-68
2022/01/19 00:03:04;;;;;;;26.20;6.97;;;5.30;99.90;;;;;;4865316;29;20053;-68
2022/01/19 00:05:29;;;;;;;22.38;7.75;;;5.40;99.90;;;;;;4864026;29;20045;-68
2022/01/19 00:07:55;;;;;;;24.17;7.15;;;5.40;99.90;;;;;;4865522;29;20025;-68
2022/01/19 00:10:27;;;;;;;24.95;7.32;;;5.40;99.90;;;;;;4840941;29;20037;-66
2022/01/19 00:12:54;;;;;;;21.23;7.53;;;5.40;99.90;;;;;;4848068;29;20454;-67
2022/01/19 00:15:20;;;;;;;24.65;8.35;;;5.40;99.90;;;;;;4871144;29;20116;-67
2022/01/19 00:17:45;;;;;;;24.13;8.27;;;5.40;99.90;;;;;;4865093;29;20021;-67
2022/01/19 00:20:11;;;;;;;24.98;9.07;;;5.40;99.90;;;;;;4862873;29;20490;-66
2022/01/19 00:22:37;;;;;;;28.92;9.32;;;5.40;99.90;;;;;;4865069;29;20158;-67
2022/01/19 00:25:03;;;;;;;26.67;9.60;;;5.40;99.90;;;;;;4857321;29;20041;-67
2022/01/19 00:27:29;;;;;;;28.65;10.15;;;5.40;99.90;;;;;;4847930;29;20082;-66
2022/01/19 00:29:54;;;;;;;32.83;10.07;;;5.40;99.90;;;;;;4855355;29;20092;-67
2022/01/19 00:32:22;;;;;;;30.25;9.73;;;5.40;99.90;;;;;;4854016;29;20049;-67
2022/01/19 00:34:48;;;;;;;29.05;9.15;;;5.40;99.90;;;;;;4846230;29;20041;-67
2022/01/19 00:37:13;;;;;;;34.80;10.32;;;5.40;99.90;;;;;;4844653;29;20040;-66
2022/01/19 00:39:39;;;;;;;29.48;9.20;;;5.40;99.90;;;;;;4859208;29;20043;-67
2022/01/19 00:42:04;;;;;;;26.10;9.00;;;5.50;99.90;;;;;;4866002;29;20037;-67
2022/01/19 00:44:30;;;;;;;25.98;9.60;;;5.40;99.90;;;;;;4840445;29;20128;-68
2022/01/19 00:46:55;;;;;;;31.67;9.93;;;5.40;99.90;;;;;;4853061;29;20146;-67
2022/01/19 00:49:21;;;;;;;29.23;10.30;;;5.40;99.90;;;;;;4863723;29;20152;-68
2022/01/19 00:51:46;;;;;;;26.55;8.82;;;5.50;99.90;;;;;;4855719;29;20036;-68
2022/01/19 00:54:12;;;;;;;30.42;9.88;;;5.50;99.90;;;;;;4859000;29;20089;-68
2022/01/19 00:56:38;;;;;;;22.75;8.82;;;5.40;99.90;;;;;;4850676;29;20039;-68
2022/01/19 00:59:03;;;;;;;30.65;10.18;;;5.40;99.90;;;;;;4839504;29;20093;-67
2022/01/19 01:01:29;;;;;;;30.90;9.73;;;5.40;99.90;;;;;;4847277;29;20581;-68
2022/01/19 01:03:54;;;;;;;28.55;9.52;;;5.40;99.90;;;;;;4857264;29;20120;-68
2022/01/19 01:06:20;;;;;;;34.20;9.38;;;5.40;99.90;;;;;;4860966;29;20148;-68
2022/01/19 01:08:45;;;;;;;26.88;9.02;;;5.40;99.90;;;;;;4848295;29;20090;-68
2022/01/19 01:11:11;;;;;;;25.73;9.40;;;5.40;99.90;;;;;;4843411;29;20085;-68
2022/01/19 01:16:36;;;;;;;27.02;10.05;;;5.40;99.90;;;;;;4857761;29;20053;-68
2022/01/19 01:19:01;;;;;;;29.08;11.25;;;5.40;99.90;;;;;;4850411;29;20029;-68
2022/01/19 01:21:28;;;;;;;28.65;10.80;;;5.40;99.90;;;;;;4845509;29;20474;-68
2022/01/19 01:23:53;;;;;;;27.25;10.85;;;5.40;99.90;;;;;;4840874;29;20041;-68
2022/01/19 01:26:19;;;;;;;24.00;9.88;;;5.40;99.90;;;;;;4845033;29;20041;-66
2022/01/19 01:28:45;;;;;;;29.23;10.00;;;5.40;99.90;;;;;;4855625;29;20029;-68
2022/01/19 01:31:10;;;;;;;23.55;9.27;;;5.40;99.90;;;;;;4841101;29;20034;-68
2022/01/19 01:33:37;;;;;;;31.80;9.80;;;5.40;99.90;;;;;;4854590;29;20029;-67
2022/01/19 01:36:03;;;;;;;27.95;9.77;;;5.30;99.90;;;;;;4860237;29;20405;-68
2022/01/19 01:38:28;;;;;;;26.00;10.02;;;5.30;99.90;;;;;;4845951;29;20025;-68
2022/01/19 01:40:54;;;;;;;29.80;9.40;;;5.30;99.90;;;;;;4851533;29;20028;-68
2022/01/19 01:43:19;;;;;;;27.30;10.48;;;5.30;99.90;;;;;;4858335;29;20065;-67
2022/01/19 01:45:48;;;;;;;27.98;9.02;;;5.30;99.90;;;;;;4850794;29;20033;-67
2022/01/19 01:48:17;;;;;;;22.10;9.57;;;5.30;99.90;;;;;;4846356;29;20033;-67
2022/01/19 01:53:43;;;;;;;25.23;10.00;;;5.30;99.90;;;;;;4856946;29;20040;-67
2022/01/19 01:56:09;;;;;;;24.52;8.70;;;5.20;99.90;;;;;;4844961;29;20033;-67
2022/01/19 01:58:34;;;;;;;25.13;8.98;;;5.20;99.90;;;;;;4853112;29;20089;-67
2022/01/19 02:01:40;;;;;;;24.38;8.98;;;5.30;99.90;;;;;;4815564;29;20043;-67
2022/01/19 02:04:11;;;;;;;28.20;9.65;;;5.30;99.90;;;;;;4813733;29;20030;-67
2022/01/19 02:09:27;;;;;;;27.02;8.85;;;5.30;99.90;;;;;;4832610;29;20052;-67
2022/01/19 02:22:50;;;;;;;29.13;9.63;;;5.20;99.90;;;;;;4828855;29;20520;-68
2022/01/19 02:25:16;;;;;;;30.85;10.73;;;5.20;99.90;;;;;;4839497;29;20085;-67
2022/01/19 02:31:10;;;;;;;29.88;10.15;;;5.20;99.90;;;;;;4849418;29;20799;-67
2022/01/19 02:41:27;;;;;;;26.15;11.10;;;5.20;99.90;;;;;;4859241;29;20997;-67
2022/01/19 02:43:53;;;;;;;24.02;10.00;;;5.20;99.90;;;;;;4860639;29;20022;-67
2022/01/19 02:49:14;;;;;;;29.75;11.05;;;5.20;99.90;;;;;;4848866;29;20029;-67
2022/01/19 02:51:40;;;;;;;25.00;12.40;;;5.20;99.90;;;;;;4847174;29;20115;-67
2022/01/19 02:54:06;;;;;;;20.65;10.85;;;5.30;99.90;;;;;;4839777;29;20891;-68
2022/01/19 02:56:35;;;;;;;29.52;11.23;;;5.20;99.90;;;;;;4859962;29;20832;-67
2022/01/19 02:59:14;;;;;;;35.08;12.48;;;5.20;99.90;;;;;;4856040;29;20562;-67
2022/01/19 03:09:44;;;;;;;23.17;10.07;;;5.20;99.90;;;;;;4837886;29;20102;-67
2022/01/19 03:12:09;;;;;;;25.33;9.85;;;5.10;99.90;;;;;;4842108;29;20528;-67
2022/01/19 03:14:35;;;;;;;23.42;9.43;;;5.10;99.90;;;;;;4836743;29;20032;-67
2022/01/19 03:17:00;;;;;;;25.77;10.65;;;5.10;99.90;;;;;;4845341;29;20029;-67
2022/01/19 03:19:28;;;;;;;30.60;9.15;;;5.10;99.90;;;;;;4860949;29;20033;-67
2022/01/19 03:21:53;;;;;;;27.80;8.95;;;5.10;99.90;;;;;;4854369;29;20029;-67
2022/01/19 03:24:19;;;;;;;27.38;9.23;;;5.10;99.90;;;;;;4842923;29;20053;-67
2022/01/19 03:26:44;;;;;;;24.20;8.68;;;5.00;99.90;;;;;;4846338;29;20120;-67
2022/01/19 03:29:36;;;;;;;32.28;10.10;;;5.20;99.90;;;;;;4854993;29;20983;-67
2022/01/19 03:32:02;;;;;;;19.83;8.40;;;5.10;99.90;;;;;;4850325;29;20108;-67
2022/01/19 03:34:28;;;;;;;25.85;8.57;;;5.10;99.90;;;;;;4864371;29;20144;-67
2022/01/19 03:36:59;;;;;;;22.90;8.75;;;5.10;99.90;;;;;;4844271;29;20026;-67
2022/01/19 03:39:25;;;;;;;28.00;8.75;;;5.10;99.90;;;;;;4839653;29;20066;-67
2022/01/19 03:41:50;;;;;;;26.65;9.50;;;5.10;99.90;;;;;;4843692;29;20025;-67
2022/01/19 03:44:16;;;;;;;23.48;8.70;;;5.10;99.90;;;;;;4837847;29;20041;-67
2022/01/19 03:46:57;;;;;;;20.25;7.40;;;5.10;99.90;;;;;;4854015;29;20033;-67
2022/01/19 03:49:24;;;;;;;23.50;8.35;;;5.10;99.90;;;;;;4847052;29;20041;-67
2022/01/19 03:51:50;;;;;;;24.88;8.00;;;5.10;99.90;;;;;;4844080;29;20073;-67
2022/01/19 03:54:16;;;;;;;27.85;9.02;;;5.10;99.90;;;;;;4837552;29;20737;-67
2022/01/19 03:56:41;;;;;;;23.45;8.27;;;5.10;99.90;;;;;;4831271;29;20085;-68
2022/01/19 03:59:09;;;;;;;21.08;8.13;;;5.10;99.90;;;;;;4849628;29;20037;-67
2022/01/19 04:01:34;;;;;;;28.40;7.95;;;5.10;99.90;;;;;;4844170;29;20683;-67
2022/01/19 04:06:51;;;;;;;22.67;8.57;;;5.00;99.90;;;;;;4857629;29;20128;-67
2022/01/19 04:09:14;;;;;;;23.08;9.63;;;5.00;99.90;;;;;;4853040;29;20503;-67
2022/01/19 04:11:40;;;;;;;25.73;8.02;;;5.10;99.90;;;;;;4846502;29;20037;-67
2022/01/19 04:16:31;;;;;;;26.88;8.30;;;5.00;99.90;;;;;;4850952;29;20045;-67
2022/01/19 04:19:18;;;;;;;25.58;8.68;;;5.00;99.90;;;;;;4859659;29;20033;-67
2022/01/19 04:21:42;;;;;;;31.40;9.05;;;5.00;99.90;;;;;;4848213;29;20056;-67
2022/01/19 04:24:08;;;;;;;22.35;9.63;;;5.00;99.90;;;;;;4847750;29;20549;-67
2022/01/19 04:26:33;;;;;;;28.55;10.13;;;5.00;99.90;;;;;;4864429;29;20043;-67
2022/01/19 04:28:59;;;;;;;25.50;9.95;;;5.00;99.90;;;;;;4846833;29;20831;-66
2022/01/19 04:31:24;;;;;;;22.85;9.13;;;5.00;99.90;;;;;;4842523;29;20108;-66
2022/01/19 04:33:50;;;;;;;29.95;9.93;;;5.00;99.90;;;;;;4842853;29;20032;-66
2022/01/19 04:36:47;;;;;;;30.80;10.50;;;5.00;99.90;;;;;;4840734;29;20936;-66
2022/01/19 05:06:01;;;;;;;26.65;10.80;;;4.90;99.90;;;;;;4849408;29;20034;-67
2022/01/19 05:13:50;;;;;;;32.58;10.65;;;4.90;99.90;;;;;;4853271;29;20563;-66
2022/01/19 05:16:16;;;;;;;26.55;12.38;;;4.90;99.90;;;;;;4847464;29;20036;-67
2022/01/19 05:18:42;;;;;;;26.25;11.27;;;5.00;99.90;;;;;;4851123;29;20029;-67
2022/01/19 05:21:07;;;;;;;32.90;10.65;;;5.00;99.90;;;;;;4834888;29;20044;-67
2022/01/19 05:24:04;;;;;;;29.92;10.40;;;5.00;99.90;;;;;;4840040;29;20038;-67
2022/01/19 05:26:30;;;;;;;33.22;11.35;;;5.00;99.90;;;;;;4850419;29;20052;-67
2022/01/19 05:28:55;;;;;;;28.98;10.77;;;4.90;99.90;;;;;;4849197;29;20022;-67
2022/01/19 05:31:21;;;;;;;32.00;11.75;;;5.00;99.90;;;;;;4838197;29;20459;-67
2022/01/19 05:33:47;;;;;;;34.03;10.93;;;4.90;99.90;;;;;;4842571;29;20029;-67
2022/01/19 05:36:12;;;;;;;42.17;12.13;;;4.90;99.90;;;;;;4841909;29;20510;-67
2022/01/19 05:39:05;;;;;;;24.92;10.52;;;4.90;99.90;;;;;;4850942;29;20060;-67
2022/01/19 05:41:49;;;;;;;26.65;10.98;;;4.90;99.90;;;;;;4867269;29;20566;-67
2022/01/19 05:44:15;;;;;;;30.80;10.93;;;4.90;99.90;;;;;;4839021;29;20120;-67
2022/01/19 05:46:40;;;;;;;25.77;9.30;;;4.80;99.90;;;;;;4850791;29;20032;-67
2022/01/19 05:49:06;;;;;;;26.73;10.98;;;4.80;99.90;;;;;;4843498;29;20127;-66
2022/01/19 05:51:32;;;;;;;31.17;9.82;;;4.70;99.90;;;;;;4849175;29;20088;-67
2022/01/19 05:53:58;;;;;;;26.77;9.18;;;4.70;99.90;;;;;;4842675;29;20033;-67
2022/01/19 05:56:24;;;;;;;26.33;9.55;;;4.80;99.90;;;;;;4844699;29;20804;-67
2022/01/19 05:58:58;;;;;;;33.53;14.23;;;4.90;99.90;;;;;;4848202;29;20029;-67
2022/01/19 06:01:24;;;;;;;26.67;10.95;;;4.90;99.90;;;;;;4853828;29;20037;-67
2022/01/19 06:03:53;;;;;;;28.15;9.90;;;4.90;99.90;;;;;;4850445;29;20029;-67
2022/01/19 06:06:54;;;;;;;30.77;10.23;;;4.90;99.90;;;;;;4844948;29;20051;-67
2022/01/19 06:12:09;;;;;;;24.15;9.13;;;4.80;99.90;;;;;;4850776;29;20870;-67
2022/01/19 06:14:35;;;;;;;25.15;9.45;;;4.80;99.90;;;;;;4849434;29;20581;-67
2022/01/19 06:17:01;;;;;;;34.35;9.85;;;4.80;99.90;;;;;;4843504;29;20515;-67
2022/01/19 06:19:27;;;;;;;26.70;9.20;;;4.80;99.90;;;;;;4847805;29;20068;-67
2022/01/19 06:21:53;;;;;;;29.98;8.32;;;4.70;99.90;;;;;;4848611;29;20045;-67
2022/01/19 06:24:18;;;;;;;30.70;9.23;;;4.70;99.90;;;;;;4859729;29;20409;-67
2022/01/19 06:26:44;;;;;;;19.02;8.77;;;4.70;99.90;;;;;;4861045;29;20514;-67
2022/01/19 06:29:10;;;;;;;23.45;7.65;;;4.70;99.90;;;;;;4848648;29;20040;-67
2022/01/19 06:31:36;;;;;;;17.95;8.07;;;4.60;99.90;;;;;;4862375;29;20090;-67
2022/01/19 06:34:03;;;;;;;18.73;7.88;;;4.60;99.90;;;;;;4836422;29;20037;-67
2022/01/19 06:36:47;;;;;;;19.30;8.20;;;4.50;99.90;;;;;;4850121;29;20530;-67
2022/01/19 06:39:33;;;;;;;33.05;9.30;;;4.40;99.90;;;;;;4846924;29;20124;-67
2022/01/19 06:42:06;;;;;;;27.92;7.53;;;4.30;99.90;;;;;;4835197;29;20076;-67
2022/01/19 06:44:32;;;;;;;19.42;6.72;;;4.30;99.90;;;;;;4835371;29;20040;-67
2022/01/19 06:46:58;;;;;;;19.73;6.80;;;4.20;99.90;;;;;;4837236;29;20070;-67
2022/01/19 06:49:24;;;;;;;18.67;7.00;;;4.20;99.90;;;;;;4848806;29;20066;-67
2022/01/19 06:51:50;;;;;;;16.27;6.72;;;4.10;99.90;;;;;;4845144;29;20029;-67
2022/01/19 06:54:15;;;;;;;18.13;6.68;;;4.20;99.90;;;;;;4845128;29;20633;-67
2022/01/19 06:56:41;;;;;;;23.77;7.00;;;4.10;99.90;;;;;;4830518;29;20073;-67
2022/01/19 06:59:24;;;;;;;16.83;7.57;;;4.00;99.90;;;;;;4853637;29;20036;-67
2022/01/19 07:02:15;;;;;;;16.42;6.47;;;4.00;99.90;;;;;;4862438;29;20052;-67
2022/01/19 07:04:50;;;;;;;22.42;7.15;;;3.90;99.90;;;;;;4853205;29;20056;-67
2022/01/19 07:07:28;;;;;;;16.33;5.97;;;3.80;99.90;;;;;;4852970;29;20041;-67
2022/01/19 07:09:58;;;;;;;19.05;6.63;;;3.80;99.90;;;;;;4848853;29;20040;-67
2022/01/19 07:12:26;;;;;;;17.35;6.75;;;3.70;99.90;;;;;;4870439;29;20045;-67
2022/01/19 07:14:52;;;;;;;20.30;7.10;;;3.50;99.90;;;;;;4853278;29;20454;-67
2022/01/19 07:17:17;;;;;;;18.23;6.75;;;3.50;99.90;;;;;;4865420;29;20033;-67
2022/01/19 07:19:43;;;;;;;16.30;6.43;;;3.40;99.90;;;;;;4849712;29;20021;-67
2022/01/19 07:22:10;;;;;;;16.45;6.10;;;3.30;99.90;;;;;;4851084;29;20986;-67
2022/01/19 07:24:35;;;;;;;26.30;7.88;;;3.20;99.90;;;;;;4848694;29;20037;-66
2022/01/19 07:27:01;;;;;;;18.30;7.20;;;3.10;99.90;;;;;;4831653;29;20041;-67
2022/01/19 07:29:28;;;;;;;19.58;7.05;;;3.10;99.90;;;;;;4846451;29;20037;-66
2022/01/19 07:31:57;;;;;;;32.78;12.60;;;3.10;99.90;;;;;;4845849;29;20041;-72
2022/01/19 07:34:23;;;;;;;30.00;8.43;;;3.00;99.90;;;;;;4851251;29;20041;-74
2022/01/19 07:36:49;;;;;;;26.80;8.90;;;2.90;99.90;;;;;;4838899;29;20029;-66
2022/01/19 07:39:15;;;;;;;16.02;7.07;;;2.90;99.90;;;;;;4861261;29;20032;-66
2022/01/19 07:41:41;;;;;;;22.23;7.55;;;2.90;99.90;;;;;;4852298;29;20756;-65
2022/01/19 07:44:25;;;;;;;24.33;8.60;;;2.90;99.90;;;;;;4875048;29;20055;-65
2022/01/19 07:47:09;;;;;;;36.63;13.82;;;2.80;99.90;;;;;;4861221;29;20072;-66
2022/01/19 07:49:58;;;;;;;26.65;8.55;;;2.90;99.90;;;;;;4850067;29;20291;-66
2022/01/19 07:52:43;;;;;;;21.13;7.50;;;3.10;99.90;;;;;;4869336;29;20077;-66
2022/01/19 07:55:42;;;;;;;16.73;7.03;;;3.20;99.90;;;;;;4843899;29;20049;-66
2022/01/19 07:58:22;;;;;;;20.42;8.15;;;3.30;99.90;;;;;;4848948;29;20049;-66
2022/01/19 08:01:07;;;;;;;19.40;7.07;;;3.30;99.90;;;;;;4849592;29;20749;-66
2022/01/19 08:04:02;;;;;;;15.65;6.40;;;3.40;99.90;;;;;;4827787;29;20121;-66
2022/01/19 08:06:31;;;;;;;18.80;6.35;;;3.60;99.90;;;;;;4842973;29;20079;-67
2022/01/19 08:08:57;;;;;;;11.80;6.07;;;3.70;99.90;;;;;;4850508;29;20752;-66
2022/01/19 08:11:23;;;;;;;15.70;6.93;;;4.00;99.90;;;;;;4867173;29;20040;-66
2022/01/19 08:13:58;;;;;;;16.05;7.90;;;4.00;99.90;;;;;;4850795;29;20035;-73
2022/01/19 08:16:23;;;;;;;13.32;6.07;;;4.10;99.90;;;;;;4844600;29;20040;-73
2022/01/19 08:18:49;;;;;;;11.68;5.30;;;4.30;99.90;;;;;;4843617;29;20029;-71
2022/01/19 08:21:17;;;;;;;13.55;5.97;;;4.50;99.90;;;;;;4850627;29;20033;-72
2022/01/19 08:23:50;;;;;;;16.55;6.50;;;4.60;99.90;;;;;;4861661;29;20558;-71
2022/01/19 08:26:17;;;;;;;12.48;5.43;;;4.60;99.90;;;;;;4847271;29;20029;-71
2022/01/19 08:28:44;;;;;;;12.13;6.15;;;4.60;99.90;;;;;;4851019;29;20049;-71
2022/01/19 08:31:10;;;;;;;12.13;5.63;;;4.60;99.90;;;;;;4847638;29;20117;-71
2022/01/19 08:34:11;;;;;;;19.05;7.28;;;4.70;99.90;;;;;;4815034;29;20614;-70
2022/01/19 08:37:14;;;;;;;22.17;8.15;;;4.70;99.90;;;;;;4837508;29;20033;-71
2022/01/19 08:39:44;;;;;;;;;;;4.50;99.90;;;;;;4848159;29;20028;-72
2022/01/19 08:42:09;;;;;;;15.25;6.35;;;4.30;99.90;;;;;;4849423;29;20312;-71
2022/01/19 08:44:36;;;;;;;13.95;6.72;;;4.20;99.90;;;;;;4845009;29;20029;-72
2022/01/19 08:47:15;;;;;;;16.70;6.40;;;4.20;99.90;;;;;;4850882;29;20556;-71
2022/01/19 08:50:07;;;;;;;16.33;7.47;;;4.30;99.90;;;;;;4859929;29;20053;-71
2022/01/19 08:52:40;;;;;;;14.05;7.13;;;4.30;99.90;;;;;;4851914;29;20108;-71
2022/01/19 08:55:13;;;;;;;15.32;7.53;;;4.30;99.90;;;;;;4862069;29;20040;-72
2022/01/19 08:57:39;;;;;;;13.93;6.78;;;4.30;99.90;;;;;;4868316;29;20032;-67
2022/01/19 09:00:04;;;;;;;17.33;7.88;;;4.30;99.90;;;;;;4851292;29;20045;-67
2022/01/19 09:02:30;;;;;;;15.95;7.30;;;4.30;99.90;;;;;;4849195;29;20041;-67
2022/01/19 09:04:56;;;;;;;18.02;8.18;;;4.30;99.90;;;;;;4845522;29;20108;-67
2022/01/19 09:07:21;;;;;;;15.27;7.47;;;4.40;99.90;;;;;;4847903;29;20041;-66
2022/01/19 09:09:47;;;;;;;16.08;7.68;;;4.50;99.90;;;;;;4852374;29;20041;-67
2022/01/19 09:12:12;;;;;;;16.83;7.90;;;4.50;99.90;;;;;;4865258;29;20058;-66
2022/01/19 09:14:38;;;;;;;16.70;8.02;;;4.70;99.90;;;;;;4859779;29;20479;-67
2022/01/19 09:17:07;;;;;;;18.23;7.63;;;4.80;99.90;;;;;;4866137;29;20025;-67
2022/01/19 09:19:33;;;;;;;12.55;7.13;;;4.80;99.90;;;;;;4863793;29;20128;-67
2022/01/19 09:21:58;;;;;;;15.07;8.00;;;4.80;99.90;;;;;;4845260;29;20136;-67
2022/01/19 09:24:24;;;;;;;17.02;7.18;;;4.90;99.90;;;;;;4864395;29;20124;-66
2022/01/19 09:26:49;;;;;;;14.10;7.38;;;4.90;99.90;;;;;;4853467;29;20040;-66
2022/01/19 09:29:15;;;;;;;15.13;7.50;;;4.90;99.90;;;;;;4863111;29;20736;-67
2022/01/19 09:31:43;;;;;;;14.55;7.95;;;4.70;99.90;;;;;;4864598;29;20048;-67
2022/01/19 09:34:10;;;;;;;15.13;7.63;;;4.60;99.90;;;;;;4866880;29;20414;-67
2022/01/19 09:36:43;;;;;;;27.23;14.00;;;4.70;99.90;;;;;;4859724;29;20107;-67
2022/01/19 09:39:09;;;;;;;16.52;8.18;;;4.80;99.90;;;;;;4848951;29;20033;-65
2022/01/19 09:41:34;;;;;;;12.02;7.45;;;4.80;99.90;;;;;;4864632;29;20045;-67
2022/01/19 09:44:00;;;;;;;12.77;8.02;;;4.80;99.90;;;;;;4849470;29;20563;-67
2022/01/19 09:46:26;;;;;;;17.17;8.85;;;4.70;99.90;;;;;;4863959;29;20041;-67
2022/01/19 09:48:52;;;;;;;16.05;8.68;;;4.60;99.90;;;;;;4851116;29;20033;-66
2022/01/19 09:51:17;;;;;;;19.80;8.85;;;4.50;99.90;;;;;;4869153;29;20033;-67
2022/01/19 09:53:42;;;;;;;15.65;8.65;;;4.90;99.90;;;;;;4851315;29;20486;-67
2022/01/19 09:56:08;;;;;;;21.25;10.27;;;5.00;99.90;;;;;;4848591;29;20068;-66
2022/01/19 09:58:33;;;;;;;15.85;9.32;;;4.90;99.90;;;;;;4857439;29;20045;-66
2022/01/19 10:00:59;;;;;;;14.63;8.77;;;4.50;99.90;;;;;;4863353;29;20065;-67
2022/01/19 10:03:24;;;;;;;15.27;9.10;;;4.30;99.90;;;;;;4851945;29;20032;-67
2022/01/19 10:05:50;;;;;;;18.00;10.18;;;4.20;99.90;;;;;;4866428;29;20033;-67
2022/01/19 10:08:15;;;;;;;17.92;9.40;;;4.10;99.90;;;;;;4865526;29;20132;-67
2022/01/19 10:10:41;;;;;;;16.40;9.70;;;4.10;99.90;;;;;;4864444;29;20116;-66
2022/01/19 10:18:55;;;;;;;17.23;9.65;;;4.20;99.90;;;;;;4788917;29;20053;-67
2022/01/19 10:21:21;;;;;;;20.38;9.88;;;4.30;99.90;;;;;;4808149;29;20801;-66
2022/01/19 10:23:48;;;;;;;15.20;9.68;;;4.30;99.90;;;;;;4825301;29;20046;-67
2022/01/19 10:26:14;;;;;;;16.85;9.70;;;4.30;99.90;;;;;;4862660;29;20422;-67
2022/01/19 10:28:39;;;;;;;16.05;9.40;;;4.40;99.90;;;;;;4861406;29;20032;-66
2022/01/19 10:31:05;;;;;;;14.40;8.55;;;4.30;99.90;;;;;;4857364;29;20736;-66
2022/01/19 10:33:30;;;;;;;15.00;9.68;;;4.40;99.90;;;;;;4864940;29;20715;-66
2022/01/19 10:35:58;;;;;;;16.02;9.77;;;4.40;99.90;;;;;;4859996;29;20069;-67
2022/01/19 10:38:25;;;;;;;17.52;9.73;;;4.30;99.90;;;;;;4859190;29;20045;-67
2022/01/19 10:40:51;;;;;;;13.52;9.43;;;4.10;99.90;;;;;;4844385;29;20112;-67
2022/01/19 10:43:16;;;;;;;16.15;10.68;;;4.10;99.90;;;;;;4863760;29;20684;-66
2022/01/19 10:45:42;;;;;;;16.80;10.25;;;4.00;99.90;;;;;;4866673;29;20040;-66
2022/01/19 10:48:07;;;;;;;16.08;9.30;;;4.00;99.90;;;;;;4861861;29;20030;-66
2022/01/19 10:50:33;;;;;;;17.08;10.38;;;4.00;99.90;;;;;;4835219;29;20120;-66
2022/01/19 10:52:58;;;;;;;13.93;9.10;;;4.10;99.90;;;;;;4861079;29;20289;-67
2022/01/19 10:55:24;;;;;;;12.85;8.48;;;4.20;99.90;;;;;;4861964;29;20033;-67
2022/01/19 10:57:50;;;;;;;14.25;9.30;;;4.20;99.90;;;;;;4850320;29;20111;-67
2022/01/19 11:00:16;;;;;;;14.10;9.60;;;4.20;99.90;;;;;;4863920;29;20502;-67
2022/01/19 11:02:41;;;;;;;13.98;9.07;;;4.10;99.90;;;;;;4857203;29;20037;-66
2022/01/19 11:05:07;;;;;;;15.00;9.45;;;4.00;99.90;;;;;;4862875;29;20032;-66
2022/01/19 11:07:32;;;;;;;15.10;9.88;;;3.90;99.90;;;;;;4861353;29;20038;-67
2022/01/19 11:10:13;;;;;;;13.95;10.27;;;3.80;99.90;;;;;;4844908;29;20513;-67
2022/01/19 11:12:45;;;;;;;16.42;10.07;;;3.80;99.90;;;;;;4865585;29;20037;-67
2022/01/19 11:15:10;;;;;;;14.73;10.45;;;3.80;99.90;;;;;;4847008;29;20045;-67
2022/01/19 11:17:36;;;;;;;22.65;13.55;;;3.80;99.90;;;;;;4861993;29;20028;-66
2022/01/19 11:20:01;;;;;;;52.28;27.67;;;3.70;99.90;;;;;;4847681;29;20069;-66
2022/01/19 11:22:26;;;;;;;41.47;20.90;;;3.70;99.90;;;;;;4859670;29;20085;-67
2022/01/19 11:24:52;;;;;;;27.63;15.40;;;3.70;99.90;;;;;;4865368;29;20029;-67
2022/01/19 11:27:17;;;;;;;16.00;10.10;;;3.60;99.90;;;;;;4856955;29;20079;-67
2022/01/19 11:29:43;;;;;;;15.25;10.30;;;3.60;99.90;;;;;;4860950;29;20033;-67
2022/01/19 11:32:08;;;;;;;14.38;10.48;;;3.60;99.90;;;;;;4843260;29;20041;-67
2022/01/19 11:34:34;;;;;;;14.73;9.70;;;3.60;99.90;;;;;;4864703;29;20036;-67
2022/01/19 11:36:59;;;;;;;16.20;10.40;;;3.60;99.90;;;;;;4860508;29;20847;-71
2022/01/19 11:39:30;;;;;;;66.13;31.15;;;3.60;99.90;;;;;;4850062;29;20079;-70
2022/01/19 11:41:55;;;;;;;18.30;11.65;;;3.70;99.90;;;;;;4864598;29;20040;-71
2022/01/19 11:44:21;;;;;;;21.42;11.73;;;3.70;99.90;;;;;;4864114;29;20490;-71
2022/01/19 11:46:46;;;;;;;16.73;11.05;;;3.60;99.90;;;;;;4845450;29;20127;-72
2022/01/19 11:49:12;;;;;;;19.27;11.60;;;3.70;99.90;;;;;;4864735;29;20040;-71
2022/01/19 11:51:38;;;;;;;24.17;14.52;;;3.70;99.90;;;;;;4866989;29;20037;-72
2022/01/19 11:54:03;;;;;;;17.60;12.20;;;3.70;99.90;;;;;;4866650;29;20912;-71
2022/01/19 11:56:29;;;;;;;18.15;11.30;;;3.80;99.90;;;;;;4865728;29;20045;-71
2022/01/19 11:58:54;;;;;;;15.57;10.70;;;3.70;99.90;;;;;;4863305;29;20417;-72
2022/01/19 12:01:20;;;;;;;16.60;12.15;;;3.70;99.90;;;;;;4865225;29;20092;-71
2022/01/19 12:03:45;;;;;;;16.27;11.50;;;3.70;99.90;;;;;;4861677;29;20124;-71
2022/01/19 12:06:11;;;;;;;17.08;11.73;;;3.70;99.90;;;;;;4859285;29;20078;-71
2022/01/19 12:08:36;;;;;;;15.63;10.73;;;3.70;99.90;;;;;;4866653;29;20040;-71
2022/01/19 12:11:02;;;;;;;14.02;10.55;;;3.60;99.90;;;;;;4865353;29;20048;-71
2022/01/19 12:16:05;;;;;;;15.73;11.13;;;3.50;99.90;;;;;;4866143;29;20437;-71
2022/01/19 12:18:31;;;;;;;17.27;11.18;;;3.50;99.90;;;;;;4859964;29;20133;-72
2022/01/19 12:20:56;;;;;;;17.05;11.32;;;3.50;99.90;;;;;;4866444;29;20029;-71
2022/01/19 12:23:22;;;;;;;24.92;15.75;;;3.50;99.90;;;;;;4864480;29;20025;-71
2022/01/19 12:25:47;;;;;;;17.20;11.77;;;3.50;99.90;;;;;;4866049;29;20060;-72
2022/01/19 12:28:12;;;;;;;17.13;12.20;;;3.50;99.90;;;;;;4859376;29;20736;-70
2022/01/19 12:30:38;;;;;;;15.63;11.27;;;3.60;99.90;;;;;;4852427;29;20048;-72
2022/01/19 12:33:03;;;;;;;15.82;11.70;;;3.60;99.90;;;;;;4861128;29;20041;-72
2022/01/19 12:35:31;;;;;;;16.63;11.18;;;3.50;99.90;;;;;;4861856;29;20053;-72
2022/01/19 12:37:57;;;;;;;18.10;11.63;;;3.70;99.90;;;;;;4863851;29;20040;-72
2022/01/19 12:40:24;;;;;;;14.75;9.73;;;3.70;99.90;;;;;;4866014;29;20033;-72
2022/01/19 12:42:50;;;;;;;14.10;10.20;;;3.90;99.90;;;;;;4859673;29;20561;-72
2022/01/19 12:45:15;;;;;;;15.05;9.88;;;3.80;99.90;;;;;;4861750;29;20037;-71
2022/01/19 12:47:41;;;;;;;14.32;9.98;;;3.80;99.90;;;;;;4863516;29;20041;-72
2022/01/19 12:50:06;;;;;;;48.80;25.85;;;3.70;99.90;;;;;;4865408;29;20040;-71
2022/01/19 12:52:32;;;;;;;15.18;9.75;;;3.70;99.90;;;;;;4864949;29;20051;-71
2022/01/19 12:54:59;;;;;;;13.60;9.32;;;3.60;99.90;;;;;;4847732;29;20037;-71
2022/01/19 12:57:25;;;;;;;14.00;8.82;;;3.60;99.90;;;;;;4848968;29;20044;-71
2022/01/19 12:59:50;;;;;;;13.57;8.82;;;3.50;99.90;;;;;;4865548;29;20033;-71
2022/01/19 13:02:16;;;;;;;12.13;8.40;;;3.60;99.90;;;;;;4849104;29;20623;-72
2022/01/19 13:04:41;;;;;;;14.00;8.00;;;3.50;99.90;;;;;;4865455;29;20116;-71
2022/01/19 13:07:07;;;;;;;12.88;9.38;;;3.50;99.90;;;;;;4834048;29;20131;-72
2022/01/19 13:09:37;;;;;;;12.25;7.60;;;3.60;99.90;;;;;;4850677;29;20037;-71
2022/01/19 13:12:05;;;;;;;11.48;7.68;;;3.60;99.90;;;;;;4846881;29;20029;-71
2022/01/19 13:14:30;;;;;;;11.52;7.90;;;3.70;99.90;;;;;;4862761;29;20045;-71
2022/01/19 13:16:56;;;;;;;11.45;7.85;;;3.70;99.90;;;;;;4849757;29;20595;-71
2022/01/19 13:19:21;;;;;;;10.18;7.35;;;3.80;99.90;;;;;;4867374;29;20040;-71
2022/01/19 13:21:47;;;;;;;11.05;7.72;;;3.80;99.90;;;;;;4869352;29;20786;-71
2022/01/19 13:24:16;;;;;;;13.25;8.23;;;3.80;99.90;;;;;;4871197;29;20059;-71
2022/01/19 13:26:41;;;;;;;10.52;8.02;;;3.80;99.90;;;;;;4864052;29;20040;-71
2022/01/19 13:29:07;;;;;;;11.50;7.60;;;3.90;99.90;;;;;;4867402;29;20041;-71
2022/01/19 13:31:32;;;;;;;11.88;7.95;;;4.00;99.90;;;;;;4861891;29;20084;-71
2022/01/19 13:33:58;;;;;;;13.30;7.35;;;4.00;99.90;;;;;;4860502;29;20116;-71
2022/01/19 13:36:23;;;;;;;10.57;7.68;;;3.90;99.90;;;;;;4850982;29;20040;-71
2022/01/19 13:38:49;;;;;;;9.82;6.95;;;3.90;99.90;;;;;;4863336;29;20044;-71
2022/01/19 13:41:14;;;;;;;9.80;6.90;;;3.90;99.90;;;;;;4866335;29;20044;-71
2022/01/19 13:43:39;;;;;;;10.00;6.82;;;3.90;99.90;;;;;;4861714;29;20504;-71
2022/01/19 13:46:16;;;;;;;10.85;6.82;;;4.00;99.90;;;;;;4837654;29;20511;-71
2022/01/19 13:48:44;;;;;;;12.13;6.70;;;4.00;99.90;;;;;;4861645;29;20743;-71
2022/01/19 13:51:10;;;;;;;12.70;8.13;;;4.10;99.90;;;;;;4862513;29;20045;-72
2022/01/19 13:53:37;;;;;;;11.02;7.60;;;4.10;99.90;;;;;;4863765;29;20037;-72
2022/01/19 13:56:03;;;;;;;10.88;7.32;;;4.10;99.90;;;;;;4862852;29;20525;-71
2022/01/19 13:58:29;;;;;;;9.50;6.78;;;4.10;99.90;;;;;;4865156;29;20037;-71
2022/01/19 14:00:54;;;;;;;10.93;7.45;;;4.10;99.90;;;;;;4864890;29;20025;-71
2022/01/19 14:03:20;;;;;;;11.30;7.03;;;4.10;99.90;;;;;;4849084;29;20062;-71
2022/01/19 14:05:45;;;;;;;10.75;7.05;;;4.10;99.90;;;;;;4865806;29;20678;-71
2022/01/19 14:08:11;;;;;;;10.85;6.93;;;4.10;99.90;;;;;;4863531;29;20068;-72
2022/01/19 14:10:36;;;;;;;10.77;6.80;;;4.20;99.90;;;;;;4866974;29;20029;-71
2022/01/19 14:13:02;;;;;;;12.23;7.30;;;4.10;99.90;;;;;;4851370;29;20073;-71
2022/01/19 14:15:29;;;;;;;10.75;6.97;;;4.10;99.90;;;;;;4835699;29;20033;-72
2022/01/19 14:17:54;;;;;;;11.80;7.70;;;4.20;99.90;;;;;;4862941;29;20072;-71
2022/01/19 14:20:21;;;;;;;9.52;6.82;;;4.10;99.90;;;;;;4864329;29;20123;-71